sensor_id;sensor_type;location;lat;lon;timestamp;P1;durP1;ratioP1;P2;durP2;ratioP2
28627;SDS011;15815;46.760;19.604;2023-02-15T00:00:12;129.88;;;63.97;;
28627;SDS011;15815;46.760;19.604;2023-02-15T00:02:38;124.28;;;62.50;;
28627;SDS011;15815;46.760;19.604;2023-02-15T00:05:07;126.07;;;60.13;;
28627;SDS011;15815;46.760;19.604;2023-02-15T00:07:33;132.57;;;62.92;;
28627;SDS011;15815;46.760;19.604;2023-02-15T00:09:58;123.68;;;59.78;;
28627;SDS011;15815;46.760;19.604;2023-02-15T00:12:24;111.03;;;56.92;;
28627;SDS011;15815;46.760;19.604;2023-02-15T00:14:49;115.45;;;60.22;;
28627;SDS011;15815;46.760;19.604;2023-02-15T00:17:15;129.77;;;63.03;;
28627;SDS011;15815;46.760;19.604;2023-02-15T00:19:40;122.97;;;62.20;;
28627;SDS011;15815;46.760;19.604;2023-02-15T00:22:06;125.43;;;60.47;;
28627;SDS011;15815;46.760;19.604;2023-02-15T00:24:32;122.57;;;61.38;;
28627;SDS011;15815;46.760;19.604;2023-02-15T00:26:58;113.25;;;58.58;;
28627;SDS011;15815;46.760;19.604;2023-02-15T00:29:25;121.10;;;56.33;;
28627;SDS011;15815;46.760;19.604;2023-02-15T00:31:51;118.47;;;58.90;;
28627;SDS011;15815;46.760;19.604;2023-02-15T00:34:18;118.35;;;59.25;;
28627;SDS011;15815;46.760;19.604;2023-02-15T00:36:47;115.43;;;56.50;;
28627;SDS011;15815;46.760;19.604;2023-02-15T00:39:13;109.75;;;57.30;;
28627;SDS011;15815;46.760;19.604;2023-02-15T00:41:41;106.53;;;53.45;;
28627;SDS011;15815;46.760;19.604;2023-02-15T00:44:07;112.00;;;59.17;;
28627;SDS011;15815;46.760;19.604;2023-02-15T00:46:33;107.90;;;55.72;;
28627;SDS011;15815;46.760;19.604;2023-02-15T00:49:00;116.85;;;57.60;;
28627;SDS011;15815;46.760;19.604;2023-02-15T00:51:25;115.68;;;59.58;;
28627;SDS011;15815;46.760;19.604;2023-02-15T00:53:51;109.80;;;55.10;;
28627;SDS011;15815;46.760;19.604;2023-02-15T00:56:17;120.25;;;58.72;;
28627;SDS011;15815;46.760;19.604;2023-02-15T00:58:42;108.00;;;53.70;;
28627;SDS011;15815;46.760;19.604;2023-02-15T01:01:12;109.20;;;55.78;;
28627;SDS011;15815;46.760;19.604;2023-02-15T01:03:40;102.75;;;54.67;;
28627;SDS011;15815;46.760;19.604;2023-02-15T01:06:06;109.03;;;55.17;;
28627;SDS011;15815;46.760;19.604;2023-02-15T01:08:32;110.75;;;56.67;;
28627;SDS011;15815;46.760;19.604;2023-02-15T01:11:02;112.80;;;55.45;;
28627;SDS011;15815;46.760;19.604;2023-02-15T01:13:32;104.88;;;55.20;;
28627;SDS011;15815;46.760;19.604;2023-02-15T01:15:58;111.65;;;53.50;;
28627;SDS011;15815;46.760;19.604;2023-02-15T01:18:24;113.72;;;55.17;;
28627;SDS011;15815;46.760;19.604;2023-02-15T01:20:50;119.75;;;57.83;;
28627;SDS011;15815;46.760;19.604;2023-02-15T01:23:16;116.72;;;56.63;;
28627;SDS011;15815;46.760;19.604;2023-02-15T01:25:42;111.13;;;56.38;;
28627;SDS011;15815;46.760;19.604;2023-02-15T01:28:07;110.60;;;55.08;;
28627;SDS011;15815;46.760;19.604;2023-02-15T01:30:33;106.97;;;53.00;;
28627;SDS011;15815;46.760;19.604;2023-02-15T01:32:59;104.40;;;53.28;;
28627;SDS011;15815;46.760;19.604;2023-02-15T01:35:24;106.57;;;53.17;;
28627;SDS011;15815;46.760;19.604;2023-02-15T01:37:50;111.32;;;53.45;;
28627;SDS011;15815;46.760;19.604;2023-02-15T01:40:16;113.47;;;54.88;;
28627;SDS011;15815;46.760;19.604;2023-02-15T01:42:43;107.57;;;53.50;;
28627;SDS011;15815;46.760;19.604;2023-02-15T01:45:21;128.57;;;63.65;;
28627;SDS011;15815;46.760;19.604;2023-02-15T01:47:58;108.57;;;55.10;;
28627;SDS011;15815;46.760;19.604;2023-02-15T01:50:30;109.45;;;55.90;;
28627;SDS011;15815;46.760;19.604;2023-02-15T01:53:19;118.13;;;54.97;;
28627;SDS011;15815;46.760;19.604;2023-02-15T01:55:51;107.35;;;54.88;;
28627;SDS011;15815;46.760;19.604;2023-02-15T01:58:25;133.70;;;61.75;;
28627;SDS011;15815;46.760;19.604;2023-02-15T02:00:52;122.55;;;59.13;;
28627;SDS011;15815;46.760;19.604;2023-02-15T02:03:20;126.15;;;62.85;;
28627;SDS011;15815;46.760;19.604;2023-02-15T02:08:27;107.25;;;53.53;;
28627;SDS011;15815;46.760;19.604;2023-02-15T02:10:53;114.82;;;54.08;;
28627;SDS011;15815;46.760;19.604;2023-02-15T02:13:19;118.28;;;58.03;;
28627;SDS011;15815;46.760;19.604;2023-02-15T02:15:57;117.97;;;56.72;;
28627;SDS011;15815;46.760;19.604;2023-02-15T02:21:18;96.90;;;50.00;;
28627;SDS011;15815;46.760;19.604;2023-02-15T02:27:09;113.28;;;51.72;;
28627;SDS011;15815;46.760;19.604;2023-02-15T02:33:14;106.00;;;50.10;;
28627;SDS011;15815;46.760;19.604;2023-02-15T02:41:12;98.35;;;50.75;;
28627;SDS011;15815;46.760;19.604;2023-02-15T02:44:02;96.80;;;48.95;;
28627;SDS011;15815;46.760;19.604;2023-02-15T02:49:32;99.05;;;50.58;;
28627;SDS011;15815;46.760;19.604;2023-02-15T02:52:33;90.28;;;46.55;;
28627;SDS011;15815;46.760;19.604;2023-02-15T02:55:09;104.13;;;46.53;;
28627;SDS011;15815;46.760;19.604;2023-02-15T03:00:23;97.85;;;47.75;;
28627;SDS011;15815;46.760;19.604;2023-02-15T03:02:56;92.45;;;48.25;;
28627;SDS011;15815;46.760;19.604;2023-02-15T03:05:28;90.15;;;45.67;;
28627;SDS011;15815;46.760;19.604;2023-02-15T03:07:54;95.50;;;47.92;;
28627;SDS011;15815;46.760;19.604;2023-02-15T03:10:22;93.10;;;47.47;;
28627;SDS011;15815;46.760;19.604;2023-02-15T03:12:50;98.55;;;51.38;;
28627;SDS011;15815;46.760;19.604;2023-02-15T03:15:23;96.55;;;49.53;;
28627;SDS011;15815;46.760;19.604;2023-02-15T03:17:55;95.63;;;48.65;;
28627;SDS011;15815;46.760;19.604;2023-02-15T03:20:28;98.63;;;51.37;;
28627;SDS011;15815;46.760;19.604;2023-02-15T03:23:00;106.78;;;53.50;;
28627;SDS011;15815;46.760;19.604;2023-02-15T03:25:42;99.30;;;52.47;;
28627;SDS011;15815;46.760;19.604;2023-02-15T03:28:18;93.38;;;48.22;;
28627;SDS011;15815;46.760;19.604;2023-02-15T03:30:48;106.38;;;53.88;;
28627;SDS011;15815;46.760;19.604;2023-02-15T03:33:18;108.15;;;52.15;;
28627;SDS011;15815;46.760;19.604;2023-02-15T03:36:33;105.70;;;51.15;;
28627;SDS011;15815;46.760;19.604;2023-02-15T03:41:58;103.45;;;52.55;;
28627;SDS011;15815;46.760;19.604;2023-02-15T03:44:38;101.82;;;52.25;;
28627;SDS011;15815;46.760;19.604;2023-02-15T03:47:18;118.07;;;54.78;;
28627;SDS011;15815;46.760;19.604;2023-02-15T03:50:08;112.43;;;54.60;;
28627;SDS011;15815;46.760;19.604;2023-02-15T03:52:38;113.97;;;54.08;;
28627;SDS011;15815;46.760;19.604;2023-02-15T03:55:03;101.03;;;50.38;;
28627;SDS011;15815;46.760;19.604;2023-02-15T03:57:29;99.05;;;51.17;;
28627;SDS011;15815;46.760;19.604;2023-02-15T03:59:55;110.88;;;50.90;;
28627;SDS011;15815;46.760;19.604;2023-02-15T04:02:24;100.18;;;49.33;;
28627;SDS011;15815;46.760;19.604;2023-02-15T04:04:52;91.50;;;47.13;;
28627;SDS011;15815;46.760;19.604;2023-02-15T04:07:18;97.95;;;48.72;;
28627;SDS011;15815;46.760;19.604;2023-02-15T04:09:43;85.47;;;44.35;;
28627;SDS011;15815;46.760;19.604;2023-02-15T04:12:09;91.72;;;46.38;;
28627;SDS011;15815;46.760;19.604;2023-02-15T04:14:35;91.60;;;47.03;;
28627;SDS011;15815;46.760;19.604;2023-02-15T04:17:00;90.13;;;44.92;;
28627;SDS011;15815;46.760;19.604;2023-02-15T04:19:26;90.68;;;48.03;;
28627;SDS011;15815;46.760;19.604;2023-02-15T04:21:51;96.63;;;50.60;;
28627;SDS011;15815;46.760;19.604;2023-02-15T04:24:17;100.65;;;53.05;;
28627;SDS011;15815;46.760;19.604;2023-02-15T04:26:44;93.88;;;52.75;;
28627;SDS011;15815;46.760;19.604;2023-02-15T04:29:09;86.53;;;46.40;;
28627;SDS011;15815;46.760;19.604;2023-02-15T04:31:35;83.75;;;45.28;;
28627;SDS011;15815;46.760;19.604;2023-02-15T04:34:00;83.05;;;44.33;;
28627;SDS011;15815;46.760;19.604;2023-02-15T04:36:29;84.95;;;46.42;;
28627;SDS011;15815;46.760;19.604;2023-02-15T04:38:54;83.05;;;45.78;;
28627;SDS011;15815;46.760;19.604;2023-02-15T04:41:20;131.68;;;64.40;;
28627;SDS011;15815;46.760;19.604;2023-02-15T04:43:45;104.38;;;53.40;;
28627;SDS011;15815;46.760;19.604;2023-02-15T04:46:14;123.72;;;62.97;;
28627;SDS011;15815;46.760;19.604;2023-02-15T04:48:41;162.73;;;79.20;;
28627;SDS011;15815;46.760;19.604;2023-02-15T04:51:06;135.23;;;68.47;;
28627;SDS011;15815;46.760;19.604;2023-02-15T04:53:32;125.20;;;64.55;;
28627;SDS011;15815;46.760;19.604;2023-02-15T04:56:00;138.70;;;72.75;;
28627;SDS011;15815;46.760;19.604;2023-02-15T04:58:25;162.98;;;79.47;;
28627;SDS011;15815;46.760;19.604;2023-02-15T05:00:54;227.93;;;88.22;;
28627;SDS011;15815;46.760;19.604;2023-02-15T05:03:20;227.95;;;88.10;;
28627;SDS011;15815;46.760;19.604;2023-02-15T05:05:47;200.40;;;78.82;;
28627;SDS011;15815;46.760;19.604;2023-02-15T05:08:13;189.35;;;80.43;;
28627;SDS011;15815;46.760;19.604;2023-02-15T05:10:39;134.02;;;64.10;;
28627;SDS011;15815;46.760;19.604;2023-02-15T05:13:04;182.18;;;65.38;;
28627;SDS011;15815;46.760;19.604;2023-02-15T05:15:30;180.10;;;82.18;;
28627;SDS011;15815;46.760;19.604;2023-02-15T05:17:55;158.27;;;71.57;;
28627;SDS011;15815;46.760;19.604;2023-02-15T05:20:22;148.50;;;63.67;;
28627;SDS011;15815;46.760;19.604;2023-02-15T05:22:47;129.82;;;61.00;;
28627;SDS011;15815;46.760;19.604;2023-02-15T05:25:16;134.77;;;59.60;;
28627;SDS011;15815;46.760;19.604;2023-02-15T05:27:42;162.77;;;68.18;;
28627;SDS011;15815;46.760;19.604;2023-02-15T05:30:08;170.48;;;68.88;;
28627;SDS011;15815;46.760;19.604;2023-02-15T05:32:33;163.85;;;71.00;;
28627;SDS011;15815;46.760;19.604;2023-02-15T05:34:59;249.90;;;112.80;;
28627;SDS011;15815;46.760;19.604;2023-02-15T05:37:26;490.33;;;220.07;;
28627;SDS011;15815;46.760;19.604;2023-02-15T05:39:52;215.98;;;90.75;;
28627;SDS011;15815;46.760;19.604;2023-02-15T05:42:17;154.23;;;70.78;;
28627;SDS011;15815;46.760;19.604;2023-02-15T05:44:43;185.38;;;84.65;;
28627;SDS011;15815;46.760;19.604;2023-02-15T05:47:08;191.05;;;78.10;;
28627;SDS011;15815;46.760;19.604;2023-02-15T05:49:34;154.38;;;71.68;;
28627;SDS011;15815;46.760;19.604;2023-02-15T05:51:59;163.43;;;59.25;;
28627;SDS011;15815;46.760;19.604;2023-02-15T05:54:25;184.07;;;77.20;;
28627;SDS011;15815;46.760;19.604;2023-02-15T05:56:50;201.93;;;63.25;;
28627;SDS011;15815;46.760;19.604;2023-02-15T05:59:16;242.07;;;68.32;;
28627;SDS011;15815;46.760;19.604;2023-02-15T06:01:42;304.23;;;69.85;;
28627;SDS011;15815;46.760;19.604;2023-02-15T06:04:07;166.60;;;67.90;;
28627;SDS011;15815;46.760;19.604;2023-02-15T06:06:34;154.63;;;66.45;;
28627;SDS011;15815;46.760;19.604;2023-02-15T06:08:59;180.85;;;64.03;;
28627;SDS011;15815;46.760;19.604;2023-02-15T06:11:25;157.00;;;68.68;;
28627;SDS011;15815;46.760;19.604;2023-02-15T06:13:50;422.25;;;142.23;;
28627;SDS011;15815;46.760;19.604;2023-02-15T06:16:16;524.25;;;188.50;;
28627;SDS011;15815;46.760;19.604;2023-02-15T06:18:41;381.42;;;99.63;;
28627;SDS011;15815;46.760;19.604;2023-02-15T06:21:07;301.63;;;94.78;;
28627;SDS011;15815;46.760;19.604;2023-02-15T06:23:32;438.05;;;116.90;;
28627;SDS011;15815;46.760;19.604;2023-02-15T06:26:01;286.77;;;99.25;;
28627;SDS011;15815;46.760;19.604;2023-02-15T06:28:27;243.38;;;106.07;;
28627;SDS011;15815;46.760;19.604;2023-02-15T06:30:52;283.63;;;112.30;;
28627;SDS011;15815;46.760;19.604;2023-02-15T06:33:19;207.63;;;100.07;;
28627;SDS011;15815;46.760;19.604;2023-02-15T06:35:45;232.10;;;111.70;;
28627;SDS011;15815;46.760;19.604;2023-02-15T06:38:10;163.85;;;80.85;;
28627;SDS011;15815;46.760;19.604;2023-02-15T06:40:36;153.00;;;77.82;;
28627;SDS011;15815;46.760;19.604;2023-02-15T06:43:01;183.75;;;92.75;;
28627;SDS011;15815;46.760;19.604;2023-02-15T06:45:27;213.48;;;106.95;;
28627;SDS011;15815;46.760;19.604;2023-02-15T06:47:53;248.38;;;111.70;;
28627;SDS011;15815;46.760;19.604;2023-02-15T06:50:18;255.05;;;116.80;;
28627;SDS011;15815;46.760;19.604;2023-02-15T06:52:44;308.23;;;135.32;;
28627;SDS011;15815;46.760;19.604;2023-02-15T06:55:09;155.57;;;70.90;;
28627;SDS011;15815;46.760;19.604;2023-02-15T06:57:35;123.53;;;61.30;;
28627;SDS011;15815;46.760;19.604;2023-02-15T07:00:00;119.35;;;61.58;;
28627;SDS011;15815;46.760;19.604;2023-02-15T07:02:26;141.20;;;68.60;;
28627;SDS011;15815;46.760;19.604;2023-02-15T07:04:54;139.02;;;75.32;;
28627;SDS011;15815;46.760;19.604;2023-02-15T07:07:21;138.20;;;76.72;;
28627;SDS011;15815;46.760;19.604;2023-02-15T07:09:48;135.20;;;75.00;;
28627;SDS011;15815;46.760;19.604;2023-02-15T07:12:13;123.75;;;66.32;;
28627;SDS011;15815;46.760;19.604;2023-02-15T07:14:39;113.32;;;65.22;;
28627;SDS011;15815;46.760;19.604;2023-02-15T07:17:05;98.22;;;54.42;;
28627;SDS011;15815;46.760;19.604;2023-02-15T07:19:30;87.45;;;52.25;;
28627;SDS011;15815;46.760;19.604;2023-02-15T07:21:56;75.85;;;49.15;;
28627;SDS011;15815;46.760;19.604;2023-02-15T07:24:21;81.75;;;49.83;;
28627;SDS011;15815;46.760;19.604;2023-02-15T07:26:47;81.20;;;55.53;;
28627;SDS011;15815;46.760;19.604;2023-02-15T07:29:12;85.43;;;59.72;;
28627;SDS011;15815;46.760;19.604;2023-02-15T07:31:38;80.55;;;58.22;;
28627;SDS011;15815;46.760;19.604;2023-02-15T07:34:05;73.70;;;52.03;;
28627;SDS011;15815;46.760;19.604;2023-02-15T07:36:31;53.78;;;39.75;;
28627;SDS011;15815;46.760;19.604;2023-02-15T07:38:59;54.30;;;39.72;;
28627;SDS011;15815;46.760;19.604;2023-02-15T07:41:26;54.70;;;37.97;;
28627;SDS011;15815;46.760;19.604;2023-02-15T07:43:51;51.75;;;36.70;;
28627;SDS011;15815;46.760;19.604;2023-02-15T07:46:17;65.82;;;45.03;;
28627;SDS011;15815;46.760;19.604;2023-02-15T07:48:43;75.68;;;51.15;;
28627;SDS011;15815;46.760;19.604;2023-02-15T07:51:10;71.40;;;46.80;;
28627;SDS011;15815;46.760;19.604;2023-02-15T07:53:37;76.45;;;54.22;;
28627;SDS011;15815;46.760;19.604;2023-02-15T07:56:04;65.07;;;47.10;;
28627;SDS011;15815;46.760;19.604;2023-02-15T07:58:32;67.65;;;51.58;;
28627;SDS011;15815;46.760;19.604;2023-02-15T08:00:59;65.45;;;48.78;;
28627;SDS011;15815;46.760;19.604;2023-02-15T08:03:27;75.68;;;56.47;;
28627;SDS011;15815;46.760;19.604;2023-02-15T08:05:57;79.60;;;57.80;;
28627;SDS011;15815;46.760;19.604;2023-02-15T08:08:24;90.35;;;73.15;;
28627;SDS011;15815;46.760;19.604;2023-02-15T08:10:50;80.28;;;65.18;;
28627;SDS011;15815;46.760;19.604;2023-02-15T08:13:16;66.50;;;52.00;;
28627;SDS011;15815;46.760;19.604;2023-02-15T08:15:49;76.15;;;58.38;;
28627;SDS011;15815;46.760;19.604;2023-02-15T08:18:15;73.03;;;58.67;;
28627;SDS011;15815;46.760;19.604;2023-02-15T08:20:41;74.45;;;56.72;;
28627;SDS011;15815;46.760;19.604;2023-02-15T08:23:06;69.88;;;52.03;;
28627;SDS011;15815;46.760;19.604;2023-02-15T08:25:35;62.75;;;48.85;;
28627;SDS011;15815;46.760;19.604;2023-02-15T08:28:01;62.28;;;50.20;;
28627;SDS011;15815;46.760;19.604;2023-02-15T08:30:26;71.93;;;54.95;;
28627;SDS011;15815;46.760;19.604;2023-02-15T08:32:52;85.18;;;63.97;;
28627;SDS011;15815;46.760;19.604;2023-02-15T08:35:17;76.85;;;57.22;;
28627;SDS011;15815;46.760;19.604;2023-02-15T08:37:43;74.72;;;59.33;;
28627;SDS011;15815;46.760;19.604;2023-02-15T08:40:08;73.85;;;56.05;;
28627;SDS011;15815;46.760;19.604;2023-02-15T08:42:37;74.93;;;56.85;;
28627;SDS011;15815;46.760;19.604;2023-02-15T08:45:04;77.45;;;57.70;;
28627;SDS011;15815;46.760;19.604;2023-02-15T08:47:30;68.60;;;55.08;;
28627;SDS011;15815;46.760;19.604;2023-02-15T08:49:55;70.82;;;54.95;;
28627;SDS011;15815;46.760;19.604;2023-02-15T08:52:23;71.65;;;52.63;;
28627;SDS011;15815;46.760;19.604;2023-02-15T08:54:49;63.88;;;47.78;;
28627;SDS011;15815;46.760;19.604;2023-02-15T08:57:14;62.03;;;45.80;;
28627;SDS011;15815;46.760;19.604;2023-02-15T08:59:40;60.03;;;45.63;;
28627;SDS011;15815;46.760;19.604;2023-02-15T09:02:05;54.65;;;42.40;;
28627;SDS011;15815;46.760;19.604;2023-02-15T09:04:34;54.53;;;40.72;;
28627;SDS011;15815;46.760;19.604;2023-02-15T09:07:00;56.33;;;41.35;;
28627;SDS011;15815;46.760;19.604;2023-02-15T09:09:25;55.13;;;40.90;;
28627;SDS011;15815;46.760;19.604;2023-02-15T09:11:51;51.78;;;39.90;;
28627;SDS011;15815;46.760;19.604;2023-02-15T09:14:21;47.85;;;37.63;;
28627;SDS011;15815;46.760;19.604;2023-02-15T09:16:48;63.55;;;48.60;;
28627;SDS011;15815;46.760;19.604;2023-02-15T09:19:14;53.40;;;42.13;;
28627;SDS011;15815;46.760;19.604;2023-02-15T09:21:40;50.38;;;37.47;;
28627;SDS011;15815;46.760;19.604;2023-02-15T09:24:13;43.03;;;35.35;;
28627;SDS011;15815;46.760;19.604;2023-02-15T09:26:44;45.80;;;35.33;;
28627;SDS011;15815;46.760;19.604;2023-02-15T09:31:42;41.35;;;33.88;;
28627;SDS011;15815;46.760;19.604;2023-02-15T09:34:10;36.85;;;32.03;;
28627;SDS011;15815;46.760;19.604;2023-02-15T09:36:38;38.88;;;30.98;;
28627;SDS011;15815;46.760;19.604;2023-02-15T09:39:12;36.25;;;31.23;;
28627;SDS011;15815;46.760;19.604;2023-02-15T09:41:59;34.35;;;28.25;;
28627;SDS011;15815;46.760;19.604;2023-02-15T09:56:30;38.78;;;25.85;;
28627;SDS011;15815;46.760;19.604;2023-02-15T10:04:34;31.25;;;24.45;;
28627;SDS011;15815;46.760;19.604;2023-02-15T10:15:37;34.30;;;26.55;;
28627;SDS011;15815;46.760;19.604;2023-02-15T10:20:56;31.33;;;25.67;;
28627;SDS011;15815;46.760;19.604;2023-02-15T10:26:03;34.88;;;27.50;;
28627;SDS011;15815;46.760;19.604;2023-02-15T10:28:43;36.72;;;29.48;;
28627;SDS011;15815;46.760;19.604;2023-02-15T10:31:17;39.22;;;28.05;;
28627;SDS011;15815;46.760;19.604;2023-02-15T10:34:09;35.08;;;28.73;;
28627;SDS011;15815;46.760;19.604;2023-02-15T10:41:49;34.30;;;25.77;;
28627;SDS011;15815;46.760;19.604;2023-02-15T10:49:52;32.38;;;26.17;;
28627;SDS011;15815;46.760;19.604;2023-02-15T10:52:29;26.67;;;22.98;;
28627;SDS011;15815;46.760;19.604;2023-02-15T10:55:19;28.42;;;24.00;;
28627;SDS011;15815;46.760;19.604;2023-02-15T10:58:21;29.50;;;22.40;;
28627;SDS011;15815;46.760;19.604;2023-02-15T11:01:41;28.70;;;23.75;;
28627;SDS011;15815;46.760;19.604;2023-02-15T11:06:53;31.83;;;24.20;;
28627;SDS011;15815;46.760;19.604;2023-02-15T11:09:24;30.00;;;26.77;;
28627;SDS011;15815;46.760;19.604;2023-02-15T11:11:54;28.73;;;25.05;;
28627;SDS011;15815;46.760;19.604;2023-02-15T11:17:40;33.97;;;27.23;;
28627;SDS011;15815;46.760;19.604;2023-02-15T11:22:53;26.52;;;23.73;;
28627;SDS011;15815;46.760;19.604;2023-02-15T11:25:23;25.90;;;22.27;;
28627;SDS011;15815;46.760;19.604;2023-02-15T11:27:55;27.52;;;21.38;;
28627;SDS011;15815;46.760;19.604;2023-02-15T11:30:22;25.02;;;20.75;;
28627;SDS011;15815;46.760;19.604;2023-02-15T11:32:50;23.98;;;20.58;;
28627;SDS011;15815;46.760;19.604;2023-02-15T11:37:50;22.60;;;20.17;;
28627;SDS011;15815;46.760;19.604;2023-02-15T11:40:30;22.50;;;19.77;;
28627;SDS011;15815;46.760;19.604;2023-02-15T11:43:01;27.63;;;20.23;;
28627;SDS011;15815;46.760;19.604;2023-02-15T11:45:32;23.27;;;20.27;;
28627;SDS011;15815;46.760;19.604;2023-02-15T11:47:58;26.77;;;21.20;;
28627;SDS011;15815;46.760;19.604;2023-02-15T11:50:31;27.48;;;21.45;;
28627;SDS011;15815;46.760;19.604;2023-02-15T11:52:59;24.23;;;20.80;;
28627;SDS011;15815;46.760;19.604;2023-02-15T11:55:45;24.25;;;21.27;;
28627;SDS011;15815;46.760;19.604;2023-02-15T11:58:25;26.13;;;23.27;;
28627;SDS011;15815;46.760;19.604;2023-02-15T12:03:58;25.75;;;22.02;;
28627;SDS011;15815;46.760;19.604;2023-02-15T12:06:33;29.20;;;22.25;;
28627;SDS011;15815;46.760;19.604;2023-02-15T12:09:03;27.95;;;22.55;;
28627;SDS011;15815;46.760;19.604;2023-02-15T12:11:37;28.10;;;23.30;;
28627;SDS011;15815;46.760;19.604;2023-02-15T12:14:08;29.48;;;22.80;;
28627;SDS011;15815;46.760;19.604;2023-02-15T12:21:49;28.52;;;22.98;;
28627;SDS011;15815;46.760;19.604;2023-02-15T12:24:18;30.48;;;23.10;;
28627;SDS011;15815;46.760;19.604;2023-02-15T12:26:55;30.35;;;22.83;;
28627;SDS011;15815;46.760;19.604;2023-02-15T12:29:27;27.90;;;22.23;;
28627;SDS011;15815;46.760;19.604;2023-02-15T12:31:56;31.73;;;24.05;;
28627;SDS011;15815;46.760;19.604;2023-02-15T12:34:33;32.28;;;23.98;;
28627;SDS011;15815;46.760;19.604;2023-02-15T12:37:07;34.30;;;25.27;;
28627;SDS011;15815;46.760;19.604;2023-02-15T12:39:41;28.92;;;23.23;;
28627;SDS011;15815;46.760;19.604;2023-02-15T12:42:19;34.42;;;24.42;;
28627;SDS011;15815;46.760;19.604;2023-02-15T12:44:58;32.22;;;24.38;;
28627;SDS011;15815;46.760;19.604;2023-02-15T12:47:25;33.42;;;23.92;;
28627;SDS011;15815;46.760;19.604;2023-02-15T12:50:06;34.38;;;24.20;;
28627;SDS011;15815;46.760;19.604;2023-02-15T12:52:39;36.47;;;24.73;;
28627;SDS011;15815;46.760;19.604;2023-02-15T12:55:37;32.83;;;23.52;;
28627;SDS011;15815;46.760;19.604;2023-02-15T12:58:15;32.63;;;22.65;;
28627;SDS011;15815;46.760;19.604;2023-02-15T13:00:46;34.30;;;24.60;;
28627;SDS011;15815;46.760;19.604;2023-02-15T13:03:18;32.85;;;22.40;;
28627;SDS011;15815;46.760;19.604;2023-02-15T13:05:46;32.72;;;21.90;;
28627;SDS011;15815;46.760;19.604;2023-02-15T13:10:54;32.28;;;23.77;;
28627;SDS011;15815;46.760;19.604;2023-02-15T13:13:30;35.47;;;24.73;;
28627;SDS011;15815;46.760;19.604;2023-02-15T13:16:10;34.40;;;25.67;;
28627;SDS011;15815;46.760;19.604;2023-02-15T13:21:17;37.38;;;25.50;;
28627;SDS011;15815;46.760;19.604;2023-02-15T13:23:55;34.80;;;25.95;;
28627;SDS011;15815;46.760;19.604;2023-02-15T13:26:26;35.20;;;24.65;;
28627;SDS011;15815;46.760;19.604;2023-02-15T13:28:55;38.95;;;26.35;;
28627;SDS011;15815;46.760;19.604;2023-02-15T13:31:31;37.55;;;24.98;;
28627;SDS011;15815;46.760;19.604;2023-02-15T13:34:12;37.58;;;25.63;;
28627;SDS011;15815;46.760;19.604;2023-02-15T13:47:27;40.83;;;27.83;;
28627;SDS011;15815;46.760;19.604;2023-02-15T13:56:06;43.10;;;27.50;;
28627;SDS011;15815;46.760;19.604;2023-02-15T13:59:02;34.45;;;24.48;;
28627;SDS011;15815;46.760;19.604;2023-02-15T14:02:23;39.35;;;24.15;;
28627;SDS011;15815;46.760;19.604;2023-02-15T14:07:25;40.38;;;26.77;;
28627;SDS011;15815;46.760;19.604;2023-02-15T14:16:03;38.53;;;24.40;;
28627;SDS011;15815;46.760;19.604;2023-02-15T14:18:55;37.35;;;24.25;;
28627;SDS011;15815;46.760;19.604;2023-02-15T14:21:32;30.80;;;23.30;;
28627;SDS011;15815;46.760;19.604;2023-02-15T14:26:42;42.33;;;23.70;;
28627;SDS011;15815;46.760;19.604;2023-02-15T14:32:12;35.22;;;22.60;;
28627;SDS011;15815;46.760;19.604;2023-02-15T14:35:09;36.63;;;23.10;;
28627;SDS011;15815;46.760;19.604;2023-02-15T14:37:53;39.70;;;25.38;;
28627;SDS011;15815;46.760;19.604;2023-02-15T14:40:47;37.63;;;26.20;;
28627;SDS011;15815;46.760;19.604;2023-02-15T14:43:31;37.90;;;24.60;;
28627;SDS011;15815;46.760;19.604;2023-02-15T14:46:21;37.85;;;25.75;;
28627;SDS011;15815;46.760;19.604;2023-02-15T14:48:54;37.17;;;25.60;;
28627;SDS011;15815;46.760;19.604;2023-02-15T15:02:15;37.47;;;23.98;;
28627;SDS011;15815;46.760;19.604;2023-02-15T15:09:45;46.80;;;30.35;;
28627;SDS011;15815;46.760;19.604;2023-02-15T15:14:52;48.67;;;29.13;;
28627;SDS011;15815;46.760;19.604;2023-02-15T15:22:38;53.90;;;32.25;;
28627;SDS011;15815;46.760;19.604;2023-02-15T15:50:47;55.80;;;33.50;;
28627;SDS011;15815;46.760;19.604;2023-02-15T15:53:20;57.45;;;34.90;;
28627;SDS011;15815;46.760;19.604;2023-02-15T15:55:48;59.58;;;37.28;;
28627;SDS011;15815;46.760;19.604;2023-02-15T15:58:17;57.92;;;31.48;;
28627;SDS011;15815;46.760;19.604;2023-02-15T16:03:34;45.80;;;29.13;;
28627;SDS011;15815;46.760;19.604;2023-02-15T16:06:00;52.80;;;32.42;;
28627;SDS011;15815;46.760;19.604;2023-02-15T16:11:19;85.63;;;37.13;;
28627;SDS011;15815;46.760;19.604;2023-02-15T16:13:48;55.72;;;33.58;;
28627;SDS011;15815;46.760;19.604;2023-02-15T16:16:13;60.55;;;33.97;;
28627;SDS011;15815;46.760;19.604;2023-02-15T16:18:49;49.22;;;32.28;;
28627;SDS011;15815;46.760;19.604;2023-02-15T16:21:18;49.90;;;31.10;;
28627;SDS011;15815;46.760;19.604;2023-02-15T16:29:30;77.80;;;40.08;;
28627;SDS011;15815;46.760;19.604;2023-02-15T16:32:04;82.22;;;46.70;;
28627;SDS011;15815;46.760;19.604;2023-02-15T16:34:56;71.82;;;40.67;;
28627;SDS011;15815;46.760;19.604;2023-02-15T16:37:27;79.55;;;45.38;;
28627;SDS011;15815;46.760;19.604;2023-02-15T16:39:58;119.13;;;53.60;;
28627;SDS011;15815;46.760;19.604;2023-02-15T16:42:24;89.90;;;50.15;;
28627;SDS011;15815;46.760;19.604;2023-02-15T16:45:02;106.20;;;59.15;;
28627;SDS011;15815;46.760;19.604;2023-02-15T16:47:41;89.93;;;50.83;;
28627;SDS011;15815;46.760;19.604;2023-02-15T16:50:17;103.25;;;53.08;;
28627;SDS011;15815;46.760;19.604;2023-02-15T16:52:51;104.18;;;54.78;;
28627;SDS011;15815;46.760;19.604;2023-02-15T16:55:25;116.22;;;59.13;;
28627;SDS011;15815;46.760;19.604;2023-02-15T16:58:01;120.15;;;59.45;;
28627;SDS011;15815;46.760;19.604;2023-02-15T17:00:31;100.32;;;54.78;;
28627;SDS011;15815;46.760;19.604;2023-02-15T17:08:18;119.10;;;61.40;;
28627;SDS011;15815;46.760;19.604;2023-02-15T17:18:32;112.28;;;59.67;;
28627;SDS011;15815;46.760;19.604;2023-02-15T17:21:08;123.75;;;62.20;;
28627;SDS011;15815;46.760;19.604;2023-02-15T17:23:48;112.97;;;62.22;;
28627;SDS011;15815;46.760;19.604;2023-02-15T17:26:19;132.00;;;65.68;;
28627;SDS011;15815;46.760;19.604;2023-02-15T17:28:52;139.18;;;65.25;;
28627;SDS011;15815;46.760;19.604;2023-02-15T17:31:22;127.82;;;60.55;;
28627;SDS011;15815;46.760;19.604;2023-02-15T17:33:52;116.07;;;60.30;;
28627;SDS011;15815;46.760;19.604;2023-02-15T17:36:18;120.88;;;63.63;;
28627;SDS011;15815;46.760;19.604;2023-02-15T17:39:32;120.28;;;67.03;;
28627;SDS011;15815;46.760;19.604;2023-02-15T17:41:45;159.60;;;74.60;;